チャーチル空港の過去48時間の天気

チャーチル空港 (Churchill)

現在時刻: 9/28 03:53 CDT (9/28 08:53 UTC) 以下の時間は現地時間です。

過去48時間のMETAR気象情報
時間 風向 風速(m/s) 視程 気温(℃) 湿度(%) 気圧(hPa) 天気現象
28 03:00 北北東 9 10km以上 5 93 1016.1
28 02:00 北北東 9 10km以上 5 93 1015.6
28 01:00 北北東 10 10km以上 5 93 1015
28 00:00 北東 10 10km以上 5 93 1014.4
27 23:00 北北東 11 10km以上 5 93 1013.8
27 22:00 北北東 11 10km以上 5 93 1013.3
27 21:45 北北東 10 10km以上 5 93 1013.3
27 21:00 北北東 12 10km以上 5 93 1012.6 弱い霧雨
27 20:28 北北東 11 10km以上 5 100 1012.3 弱い霧雨
27 20:00 北北東 11 6450m 5 100 1011.8 弱い霧雨 もや
27 19:44 北北東 10 6450m 5 100 1011.6 弱い霧雨 もや
27 19:05 北東 11 4850m 5 100 1011.1 弱い霧雨 もや
27 18:00 北東 11 2400m 5 100 1009.7 弱い霧雨 もや
27 17:16 北北東 12 3200m 5 100 1008.8 弱い霧雨 もや
27 17:00 北北東 11 3200m 5 100 1008.5 もや
27 16:43 北北東 10 3200m 5 100 1008.2 もや
27 16:37 北北東 9 2400m 5 100 1008.1 もや
27 16:20 北東 11 4850m 5 100 1007.9 もや
27 16:00 北北東 10 3200m 5 100 1007.6 もや
27 15:36 北東 9 4000m 5 100 1007 もや
27 15:00 北東 9 10km以上 5 100 1006.3 弱い霧雨
27 14:00 北東 8 10km以上 6 93 1004.9 弱い霧雨
27 13:30 北東 9 8050m 5 100 1004.3 弱い霧雨 もや
27 13:00 北東 10 6450m 5 100 1003.7 弱い霧雨 もや
27 12:46 北東 9 8050m 5 100 1003.4 弱い霧雨 もや
27 12:19 北東 8 4850m 5 100 1003 弱い雨 もや
27 12:08 北東 8 2400m 6 100 1002.8 弱い雨 もや
27 11:53 北東 8 2400m 6 100 1002.6 弱い雨 もや
27 11:00 北東 8 10km以上 6 100 1001.8 弱い雨
27 10:00 北北東 6 10km以上 6 100 1000.9 弱い雨
27 09:54 北北東 6 10km以上 6 100 1000.8 弱い雨
27 09:00 北北東 5 10km以上 6 100 1000 弱い雨
27 08:28 北北東 5 10km以上 6 100 999.6 弱い雨
27 08:00 北北東 3 10km以上 6 100 999.3 弱い霧雨
27 07:29 北東 4 10km以上 6 100 999 弱い霧雨
27 07:00 北東 4 10km以上 6 100 998.6 弱い雨
27 06:00 北東 4 10km以上 6 100 997.9 弱い雨
27 05:51 北東 4 10km以上 6 100 997.8 弱い雨
27 05:00 4 10km以上 6 100 997.1
27 04:00 東北東 2 10km以上 5 100 996.5
27 03:49 東北東 2 8050m 5 100 996.4 もや
27 03:12 東北東 2 1600m 5 100 995.9 もや
27 03:00 2 10km以上 5 100 995.9
27 02:49 2 10km以上 5 100 995.8
27 02:00 3 1600m 5 100 995.4 もや
27 01:35 3 800m 5 100 995.3
27 01:00 東北東 3 10km以上 5 100 995
27 00:00 3 10km以上 5 100 994.8
26 23:00 2 10km以上 5 100 994.7
26 22:00 2 10km以上 6 100 994.3
26 21:00 2 10km以上 6 100 994
26 20:00 東北東 2 10km以上 6 100 993.6
26 19:00 不定 1 10km以上 8 87 993.2
26 18:00 2 10km以上 8 87 992.8
26 17:00 南南西 2 10km以上 8 87 992.3
26 16:00 南西 3 10km以上 8 87 991.8
26 15:43 南西 3 10km以上 8 87 991.7
26 15:00 南西 3 10km以上 8 87 991.3
26 14:00 西南西 3 10km以上 7 93 990.8
26 13:00 南南西 3 10km以上 7 93 990.4
26 12:00 南西 3 10km以上 6 100 989.9
26 11:31 南西 3 10km以上 6 100 989.9 弱い雨
26 11:00 南西 4 10km以上 6 100 989.7
26 10:21 南西 3 10km以上 6 100 989.7
26 10:00 南西 3 10km以上 6 100 989.5 弱い雨
26 09:32 南西 3 10km以上 6 100 989.4 弱い雨
26 09:00 南南西 2 10km以上 6 100 989.1
26 08:00 南南西 2 10km以上 5 100 989.1
26 07:00 南南西 2 10km以上 5 100 988.8
26 06:24 南南西 2 4850m 5 100 988.7 もや
26 06:00 3 1600m 5 100 988.7 もや
26 05:41 2 1200m 5 100 988.5 もや
26 05:00 南南西 2 10km以上 5 100 988.5
26 04:00 南南西 2 10km以上 5 100 988.4
CYYQ 280800Z 03018KT 15SM OVC011 05/04 A2999 RMK SC8 SLP161
CYYQ 280700Z 03017G26KT 15SM OVC011 05/04 A2998 RMK SC8 SLP156
CYYQ 280600Z 03019KT 15SM OVC009 05/04 A2996 RMK ST8 SLP150
CYYQ 280500Z 04020G27KT 15SM OVC009 05/04 A2995 RMK ST8 SLP144
CYYQ 280400Z 03021G26KT 15SM OVC009 05/04 A2993 RMK SC8 SLP138
CYYQ 280300Z 03022G28KT 15SM OVC007 05/04 A2991 RMK ST8 SLP133
CYYQ 280245Z 03019G26KT 10SM OVC007 05/04 A2991 RMK ST8 SLP133
CYYQ 280200Z 03023G29KT 10SM -DZ OVC007 05/04 A2989 RMK ST8 SLP126
CYYQ 280128Z 03022G28KT 8SM -DZ OVC007 05/05 A2988 RMK ST8 SLP123
CYYQ 280100Z 03022G30KT 4SM -DZ BR OVC005 05/05 A2987 RMK ST8 SLP118
CYYQ 280044Z 03020G27KT 4SM -DZ BR OVC005 05/05 A2986 RMK ST8 SLP116
CYYQ 280005Z 04021KT 3SM -DZ BR OVC003 05/05 A2985 RMK ST8 VIS LWR SE-SW SLP111
CYYQ 272300Z 04022KT 1 1/2SM -DZ BR OVC005 05/05 A2981 RMK ST8 SLP097
CYYQ 272216Z 03023KT 2SM -DZ BR OVC005 05/05 A2978 RMK ST8 VIS VRB 1 1/2 - 2 1/2 SLP088
CYYQ 272200Z 03022KT 2SM BR OVC005 05/05 A2977 RMK ST8 VIS VRB 1 1/2 - 2 1/2 SLP085
CYYQ 272143Z 03019G26KT 2SM BR OVC005 05/05 A2976 RMK ST8 VIS VRB 1 1/2 -2 1/2 SLP082
CYYQ 272137Z 03018G26KT 1 1/2SM BR OVC005 05/05 A2976 RMK ST8 SLP081
CYYQ 272120Z 04021G26KT 3SM BR OVC005 05/05 A2975 RMK ST8 SLP079
CYYQ 272100Z 03020KT 2SM BR OVC005 05/05 A2975 RMK ST8 SLP076
CYYQ 272036Z 04018G23KT 2 1/2SM BR OVC005 05/05 A2973 RMK ST8 SLP070
CYYQ 272000Z 04018G24KT 8SM -DZ OVC005 05/05 A2971 RMK ST8 PRESRR SLP063
CYYQ 271900Z CCA 04016G23KT 8SM -DZ OVC005 06/05 A2967 RMK ST8 SLP049
CYYQ 271830Z 05017G23KT 5SM -DZ BR OVC005 05/05 A2965 RMK ST8 SLP043
CYYQ 271800Z 04019G24KT 4SM -DZ BR OVC003 05/05 A2963 RMK ST8 SLP037
CYYQ 271746Z 05017G23KT 5SM -DZ BR OVC003 05/05 A2962 RMK ST8 SLP034
CYYQ 271719Z 05015KT 3SM -RA BR OVC003 05/05 A2961 RMK SC8 VIS SE-SW 1 1/2 SLP030
CYYQ 271708Z 05016KT 1 1/2SM -RA BR OVC003 06/06 A2960 RMK SC8 VIS VRB 1-2 SLP028
CYYQ 271653Z 04015KT 1 1/2SM -RA BR OVC003 06/06 A2960 RMK SC8 SLP026
CYYQ 271600Z 04015KT 8SM -RA OVC003 06/06 A2957 RMK SC8 SLP018
CYYQ 271500Z 03011KT 10SM -RA BKN003 OVC140 06/06 A2955 RMK SC7AC1 SLP009
CYYQ 271454Z 03011KT 10SM -RA BKN003 OVC140 06/06 A2954 RMK SC6AC2 SLP008
CYYQ 271400Z 03010KT 15SM -RA SCT003 BKN085 OVC120 06/06 A2952 RMK SF3AC2AC3 SLP000
CYYQ 271328Z 03010KT 15SM -RA SCT003 OVC150 06/06 A2951 RMK SF3AC5 SLP996
CYYQ 271300Z 03006KT 15SM -DZ SCT003 OVC150 06/06 A2950 RMK ST4AC4 SLP993
CYYQ 271229Z 04008KT 12SM -DZ BKN003 OVC150 06/06 A2949 RMK ST7AC1 SLP990
CYYQ 271200Z 04007KT 12SM -RA OVC005 06/06 A2948 RMK ST8 SLP986
CYYQ 271100Z 04007KT 12SM -RA OVC003 06/06 A2946 RMK SF8 SLP979
CYYQ 271051Z 04008KT 12SM -RA OVC003 06/06 A2946 RMK SF8 SLP978
CYYQ 271000Z 01007KT 12SM BKN003 OVC016 06/06 A2943 RMK SF6SC2 SLP971
CYYQ 270900Z 07004KT 10SM SCT003 SCT016 BKN090 05/05 A2942 RMK SF3SC1AC2 VIS S 1 SLP965
CYYQ 270849Z 07004KT 5SM BR BKN001 BKN095 05/05 A2941 RMK SF5AC1 VIS S 1 NW 10 SLP964
CYYQ 270812Z 07003KT 1SM BR BKN001 BKN100 05/05 A2940 RMK SF5AC1 VIS W-N 10 SLP959
CYYQ 270800Z 09004KT 10SM SCT001 BKN100 OVC150 05/05 A2940 RMK SF3AC3AC2 VIS E - S 1 SLP959
CYYQ 270749Z 08004KT 10SM SCT001 BKN100 05/05 A2940 RMK SF3AC4 VIS SE-SW 1 SLP958
CYYQ 270700Z 10005KT 1SM BR BKN001 OVC130 05/05 A2938 RMK SF6AC2 VIS NW 10 SLP954
CYYQ 270635Z 10005KT 1/2SM FG VV001 05/05 A2938 RMK FG8 SLP953
CYYQ 270600Z 06005KT 15SM FEW003 BKN018 05/05 A2937 RMK SF2SC4 SLP950
CYYQ 270500Z 08005KT 15SM FEW001 BKN080 05/05 A2937 RMK SF1AC6 SF TR VIS E-S 1 SLP948
CYYQ 270400Z 09004KT 15SM FEW001 FEW080 BKN110 05/05 A2936 RMK SF1AC2AC3 SF TR SLP947
CYYQ 270300Z 08003KT 15SM BKN085 06/06 A2935 RMK AC7 SLP943
CYYQ 270200Z 10003KT 15SM BKN080 06/06 A2934 RMK AC6 SLP940
CYYQ 270100Z 07004KT 15SM FEW085 BKN110 06/06 A2933 RMK AC1AC4 SLP936
CYYQ 270000Z VRB02KT 15SM FEW020 BKN120 BKN140 08/06 A2932 RMK SC1AC4AC2 SC TR SLP932
CYYQ 262300Z 19003KT 15SM FEW020 BKN130 08/06 A2931 RMK SC1AC6 SLP928
CYYQ 262200Z 21004KT 15SM FEW016 BKN023 OVC130 08/06 A2930 RMK SC2SC3AC3 SLP923 DENSITY ALT 100FT
CYYQ 262100Z 23005KT 15SM BKN016 OVC140 08/06 A2928 RMK SC6AC2 SLP918 DENSITY ALT 100FT
CYYQ 262043Z 23006KT 15SM SCT014 OVC140 08/06 A2928 RMK SC4AC4 SLP917 DENSITY ALT 100FT
CYYQ 262000Z 23006KT 15SM BKN013 BKN070 08/06 A2927 RMK SC6AC1 SLP913
CYYQ 261900Z 24005KT 15SM OVC011 07/06 A2925 RMK ST8 SLP908
CYYQ 261800Z 21005KT 15SM OVC007 07/06 A2924 RMK ST8 SLP904
CYYQ 261700Z 23005KT 15SM SCT009 OVC035 06/06 A2922 RMK SF4SC4 INTMT -RA SLP899
CYYQ 261631Z 23006KT 12SM -RA SCT007 OVC029 06/06 A2922 RMK SF4SC4 SLP899
CYYQ 261600Z 23007KT 15SM FEW007 OVC037 06/06 A2922 RMK SF2SC6 SLP897
CYYQ 261521Z 23005KT 15SM BKN005 BKN045 OVC120 06/06 A2922 RMK ST6SC1AS1 SLP897
CYYQ 261500Z 23006KT 15SM -RA SCT005 OVC040 06/06 A2921 RMK SF3SC5 SLP895
CYYQ 261432Z 22006KT 15SM -RA SCT003 BKN049 OVC140 06/06 A2921 RMK SF3SC4AS1 SLP894
CYYQ 261400Z 21004KT 15SM SCT003 BKN120 OVC140 06/06 A2920 RMK SF4AS2AS2 SLP891
CYYQ 261300Z 20004KT 12SM FEW002 BKN044 OVC100 05/05 A2920 RMK SF1SC6AC1 SLP891
CYYQ 261200Z 20004KT 12SM FEW002 BKN080 BKN120 05/05 A2919 RMK SF1AC7AC1 SF TR AC TR SLP888
CYYQ 261124Z 20004KT 3SM BR BKN150 05/05 A2919 RMK FG4AC3 SLP887
CYYQ 261100Z 19005KT 1SM BR VV002 05/05 A2919 RMK FG8 SLP887
CYYQ 261041Z 18004KT 3/4SM BR VV003 05/05 A2918 RMK FG8 VIS W - N 8 SLP885
CYYQ 261000Z 20003KT 10SM BKN002 OVC150 05/05 A2918 RMK SF7AC1 VIS SE-SW 3/4 SLP885
CYYQ 260900Z 21003KT 10SM OVC002 05/05 A2918 RMK SF8 VIS E-SW 3/4 SLP884